Time;durP1;ratioP1;P1;durP2;ratioP2;P2;SDS_P1;SDS_P2;PMS_P1;PMS_P2;Temp;Humidity;BMP_temperature;BMP_pressure;BME280_temperature;BME280_humidity;BME280_pressure;Samples;Min_cycle;Max_cycle;Signal;HPM_P1;HPM_P2
2024/04/14 00:02:03;;;;;;;21.77;12.20;;;;;;;;;;5345332;26;20015;-66
2024/04/14 00:04:29;;;;;;;22.08;12.07;;;;;;;;;;5346446;26;19997;-66
2024/04/14 00:06:54;;;;;;;22.48;12.05;;;;;;;;;;5379216;26;20019;-66
2024/04/14 00:09:20;;;;;;;21.20;12.32;;;;;;;;;;5380528;26;20004;-65
2024/04/14 00:11:45;;;;;;;26.25;13.98;;;;;;;;;;5381328;26;20004;-67
2024/04/14 00:14:11;;;;;;;23.10;11.05;;;;;;;;;;5376585;26;20346;-67
2024/04/14 00:16:36;;;;;;;22.10;12.30;;;;;;;;;;5344613;26;20020;-66
2024/04/14 00:19:01;;;;;;;27.38;15.80;;;;;;;;;;5345171;26;20016;-67
2024/04/14 00:21:27;;;;;;;24.58;15.55;;;;;;;;;;5345595;26;20021;-67
2024/04/14 00:23:52;;;;;;;25.05;13.73;;;;;;;;;;5342250;26;20263;-66
2024/04/14 00:26:18;;;;;;;22.92;12.98;;;;;;;;;;5342941;26;20293;-68
2024/04/14 00:28:44;;;;;;;23.58;14.02;;;;;;;;;;5346023;26;20015;-65
2024/04/14 00:31:09;;;;;;;20.13;11.20;;;;;;;;;;5376030;26;20008;-65
2024/04/14 00:33:35;;;;;;;21.50;11.90;;;;;;;;;;5376455;26;20014;-67
2024/04/14 00:36:04;;;;;;;18.13;10.40;;;;;;;;;;5347328;26;20001;-64
2024/04/14 00:38:30;;;;;;;22.23;11.25;;;;;;;;;;5343045;26;20021;-66
2024/04/14 00:40:55;;;;;;;16.52;9.70;;;;;;;;;;5343887;26;20140;-65
2024/04/14 00:43:21;;;;;;;17.83;10.52;;;;;;;;;;5346382;26;20005;-67
2024/04/14 00:45:46;;;;;;;19.67;10.77;;;;;;;;;;5374785;26;20419;-65
2024/04/14 00:48:12;;;;;;;19.55;10.40;;;;;;;;;;5378776;26;20007;-63
2024/04/14 00:50:38;;;;;;;14.23;8.88;;;;;;;;;;5379606;26;20008;-65
2024/04/14 00:53:04;;;;;;;16.52;9.43;;;;;;;;;;5381392;26;20346;-65
2024/04/14 00:55:30;;;;;;;15.57;9.80;;;;;;;;;;5381419;26;20008;-65
2024/04/14 00:57:57;;;;;;;21.38;9.77;;;;;;;;;;5380749;26;20014;-64
2024/04/14 01:00:23;;;;;;;13.82;8.55;;;;;;;;;;5383172;26;20015;-61
2024/04/14 01:02:50;;;;;;;15.98;9.48;;;;;;;;;;5382174;26;20004;-67
2024/04/14 01:05:17;;;;;;;15.48;8.80;;;;;;;;;;5381453;26;20129;-63
2024/04/14 01:07:42;;;;;;;19.00;9.60;;;;;;;;;;5383009;26;20331;-63
2024/04/14 01:10:08;;;;;;;15.50;9.20;;;;;;;;;;5361821;26;20001;-65
2024/04/14 01:12:34;;;;;;;18.77;9.10;;;;;;;;;;5347210;26;20413;-64
2024/04/14 01:14:59;;;;;;;14.27;8.95;;;;;;;;;;5348979;26;20004;-67
2024/04/14 01:17:24;;;;;;;15.93;8.80;;;;;;;;;;5349349;26;20067;-66
2024/04/14 01:19:50;;;;;;;17.77;9.00;;;;;;;;;;5376131;26;20016;-67
2024/04/14 01:22:15;;;;;;;17.65;9.05;;;;;;;;;;5381417;26;20425;-65
2024/04/14 01:24:41;;;;;;;17.73;9.15;;;;;;;;;;5363972;26;20023;-64
2024/04/14 01:27:06;;;;;;;17.38;8.45;;;;;;;;;;5348204;26;20001;-65
2024/04/14 01:29:32;;;;;;;15.30;8.38;;;;;;;;;;5347207;26;20012;-64
2024/04/14 01:31:57;;;;;;;15.77;8.60;;;;;;;;;;5346458;26;20024;-63
2024/04/14 01:34:22;;;;;;;15.70;9.13;;;;;;;;;;5346444;26;20004;-64
2024/04/14 01:36:48;;;;;;;16.23;8.95;;;;;;;;;;5348083;26;20009;-62
2024/04/14 01:39:13;;;;;;;15.25;9.07;;;;;;;;;;5360231;26;20004;-64
2024/04/14 01:41:39;;;;;;;15.05;8.32;;;;;;;;;;5381295;26;20000;-64
2024/04/14 01:44:04;;;;;;;14.65;8.40;;;;;;;;;;5357686;26;20009;-64
2024/04/14 01:46:30;;;;;;;15.43;8.65;;;;;;;;;;5347948;26;20001;-64
2024/04/14 01:48:55;;;;;;;16.73;8.80;;;;;;;;;;5347605;26;20021;-61
2024/04/14 01:51:21;;;;;;;19.77;9.57;;;;;;;;;;5346734;26;20101;-65
2024/04/14 01:53:46;;;;;;;20.50;9.13;;;;;;;;;;5356806;26;20004;-63
2024/04/14 01:56:12;;;;;;;20.20;10.02;;;;;;;;;;5380795;26;20000;-66
2024/04/14 01:58:37;;;;;;;20.35;8.38;;;;;;;;;;5378982;26;20009;-65
2024/04/14 02:01:03;;;;;;;19.70;9.60;;;;;;;;;;5347587;26;20020;-65
2024/04/14 02:03:28;;;;;;;19.80;9.25;;;;;;;;;;5345280;26;20407;-64
2024/04/14 02:05:57;;;;;;;17.70;10.43;;;;;;;;;;5346261;26;20024;-65
2024/04/14 02:08:22;;;;;;;20.33;10.18;;;;;;;;;;5356825;26;20078;-66
2024/04/14 02:10:48;;;;;;;16.08;9.50;;;;;;;;;;5381300;26;20363;-64
2024/04/14 02:13:14;;;;;;;23.40;11.05;;;;;;;;;;5381400;26;20000;-66
2024/04/14 02:15:39;;;;;;;16.27;9.75;;;;;;;;;;5382207;26;20004;-65
2024/04/14 02:18:05;;;;;;;18.27;10.52;;;;;;;;;;5381279;26;20011;-65
2024/04/14 02:20:31;;;;;;;19.77;10.68;;;;;;;;;;5380681;26;20007;-65
2024/04/14 02:22:56;;;;;;;18.83;10.50;;;;;;;;;;5373453;26;20028;-64
2024/04/14 02:25:21;;;;;;;20.13;10.35;;;;;;;;;;5343990;26;20017;-65
2024/04/14 02:27:47;;;;;;;17.48;10.68;;;;;;;;;;5346482;26;19997;-65
2024/04/14 02:30:12;;;;;;;23.00;12.15;;;;;;;;;;5346285;26;20012;-65
2024/04/14 02:32:39;;;;;;;20.70;10.88;;;;;;;;;;5346261;26;20013;-65
2024/04/14 02:35:06;;;;;;;16.60;10.32;;;;;;;;;;5346386;26;20284;-67
2024/04/14 02:37:32;;;;;;;22.52;11.05;;;;;;;;;;5350285;26;20009;-61
2024/04/14 02:39:57;;;;;;;19.45;9.80;;;;;;;;;;5381443;26;20386;-65
2024/04/14 02:42:23;;;;;;;16.90;9.27;;;;;;;;;;5367810;26;20004;-65
2024/04/14 02:44:48;;;;;;;21.55;9.93;;;;;;;;;;5343628;26;20001;-64
2024/04/14 02:47:14;;;;;;;14.82;9.52;;;;;;;;;;5348949;26;20339;-64
2024/04/14 02:49:39;;;;;;;19.20;10.00;;;;;;;;;;5379775;26;20467;-65
2024/04/14 02:52:06;;;;;;;16.80;8.75;;;;;;;;;;5377333;26;20022;-66
2024/04/14 02:54:31;;;;;;;18.38;8.43;;;;;;;;;;5346470;26;20079;-65
2024/04/14 02:56:57;;;;;;;14.35;9.32;;;;;;;;;;5346387;26;20005;-65
2024/04/14 02:59:22;;;;;;;15.10;8.82;;;;;;;;;;5345449;26;20012;-65
2024/04/14 03:01:47;;;;;;;17.27;8.32;;;;;;;;;;5344742;26;20001;-64
2024/04/14 03:04:13;;;;;;;19.33;9.10;;;;;;;;;;5346933;26;20379;-65
2024/04/14 03:06:38;;;;;;;17.00;9.10;;;;;;;;;;5349655;26;20490;-66
2024/04/14 03:09:04;;;;;;;16.13;9.45;;;;;;;;;;5317224;26;20005;-64
2024/04/14 03:11:29;;;;;;;17.05;8.25;;;;;;;;;;5346859;26;20443;-65
2024/04/14 03:13:55;;;;;;;15.40;8.70;;;;;;;;;;5348783;26;20128;-66
2024/04/14 03:16:20;;;;;;;20.50;11.73;;;;;;;;;;5379880;26;19996;-65
2024/04/14 03:18:46;;;;;;;20.70;12.00;;;;;;;;;;5380382;26;19996;-64
2024/04/14 03:21:11;;;;;;;14.88;9.82;;;;;;;;;;5378673;26;20011;-67
2024/04/14 03:23:38;;;;;;;19.98;11.48;;;;;;;;;;5351665;26;20017;-66
2024/04/14 03:26:03;;;;;;;20.25;12.05;;;;;;;;;;5345262;26;20005;-65
2024/04/14 03:28:29;;;;;;;17.98;10.88;;;;;;;;;;5345439;26;20011;-66
2024/04/14 03:30:58;;;;;;;17.98;10.10;;;;;;;;;;5346742;26;20001;-65
2024/04/14 03:33:24;;;;;;;14.88;10.68;;;;;;;;;;5346168;26;20075;-66
2024/04/14 03:35:57;;;;;;;17.90;9.88;;;;;;;;;;5345589;26;20016;-65
2024/04/14 03:38:22;;;;;;;13.50;8.13;;;;;;;;;;5373880;26;20004;-62
2024/04/14 03:40:57;;;;;;;14.43;8.13;;;;;;;;;;5378697;26;20015;-58
2024/04/14 03:43:22;;;;;;;12.60;7.50;;;;;;;;;;5339720;26;20040;-62
2024/04/14 03:45:48;;;;;;;13.35;6.57;;;;;;;;;;5344803;26;20000;-60
2024/04/14 03:48:13;;;;;;;12.70;7.07;;;;;;;;;;5313998;26;20036;-62
2024/04/14 03:50:39;;;;;;;11.68;6.82;;;;;;;;;;5346462;26;20000;-65
2024/04/14 03:53:04;;;;;;;12.38;7.22;;;;;;;;;;5374285;26;20020;-59
2024/04/14 03:55:31;;;;;;;13.35;6.85;;;;;;;;;;5379640;26;20035;-58
2024/04/14 03:58:15;;;;;;;10.30;6.70;;;;;;;;;;5379776;26;20015;-62
2024/04/14 04:00:41;;;;;;;10.77;6.40;;;;;;;;;;5379295;26;20408;-61
2024/04/14 04:03:06;;;;;;;10.65;6.13;;;;;;;;;;5378902;26;20015;-62
2024/04/14 04:05:32;;;;;;;11.63;6.72;;;;;;;;;;5376746;26;20019;-63
2024/04/14 04:07:57;;;;;;;12.15;6.15;;;;;;;;;;5348974;26;20079;-62
2024/04/14 04:10:22;;;;;;;10.13;6.35;;;;;;;;;;5345613;26;20001;-62
2024/04/14 04:12:48;;;;;;;8.63;6.30;;;;;;;;;;5347066;26;20020;-62
2024/04/14 04:15:14;;;;;;;10.90;7.93;;;;;;;;;;5344007;26;19997;-64
2024/04/14 04:17:39;;;;;;;12.43;7.55;;;;;;;;;;5344248;26;19997;-61
2024/04/14 04:20:05;;;;;;;10.93;7.10;;;;;;;;;;5344202;26;20044;-63
2024/04/14 04:22:30;;;;;;;12.95;9.43;;;;;;;;;;5342687;26;20036;-63
2024/04/14 04:24:55;;;;;;;18.45;16.80;;;;;;;;;;5344019;26;20001;-62
2024/04/14 04:27:21;;;;;;;19.42;17.80;;;;;;;;;;5349292;26;20419;-62
2024/04/14 04:29:46;;;;;;;18.95;17.45;;;;;;;;;;5377923;26;20004;-62
2024/04/14 04:32:16;;;;;;;9.63;8.23;;;;;;;;;;5382165;26;20410;-61
2024/04/14 04:34:42;;;;;;;7.93;5.60;;;;;;;;;;5381988;26;20000;-64
2024/04/14 04:37:07;;;;;;;8.10;6.35;;;;;;;;;;5383412;26;19996;-61
2024/04/14 04:39:32;;;;;;;9.95;8.88;;;;;;;;;;5381358;26;20276;-62
2024/04/14 04:41:58;;;;;;;11.00;9.63;;;;;;;;;;5377852;26;20001;-63
2024/04/14 04:44:23;;;;;;;13.75;12.55;;;;;;;;;;5348099;26;20012;-61
2024/04/14 04:46:48;;;;;;;16.10;14.80;;;;;;;;;;5347462;26;20001;-63
2024/04/14 04:49:14;;;;;;;13.13;12.02;;;;;;;;;;5347467;26;20299;-62
2024/04/14 04:51:39;;;;;;;7.53;4.70;;;;;;;;;;5346767;26;20016;-63
2024/04/14 04:54:05;;;;;;;8.98;4.50;;;;;;;;;;5363640;26;20008;-62
2024/04/14 04:56:30;;;;;;;7.20;4.63;;;;;;;;;;5382122;26;20411;-61
2024/04/14 04:58:56;;;;;;;7.90;4.80;;;;;;;;;;5361747;26;20005;-61
2024/04/14 05:01:21;;;;;;;8.55;5.28;;;;;;;;;;5346985;26;20001;-62
2024/04/14 05:03:47;;;;;;;9.75;5.82;;;;;;;;;;5346752;26;20016;-63
2024/04/14 05:06:12;;;;;;;8.98;5.38;;;;;;;;;;5347523;26;20012;-62
2024/04/14 05:08:37;;;;;;;8.07;5.68;;;;;;;;;;5348683;26;20028;-65
2024/04/14 05:11:03;;;;;;;8.35;5.38;;;;;;;;;;5345646;26;20021;-61
2024/04/14 05:13:28;;;;;;;8.70;5.30;;;;;;;;;;5363720;26;20320;-60
2024/04/14 05:15:54;;;;;;;5.70;4.57;;;;;;;;;;5382871;26;20000;-63
2024/04/14 05:18:20;;;;;;;7.88;4.53;;;;;;;;;;5383375;26;20400;-62
2024/04/14 05:20:46;;;;;;;7.95;5.55;;;;;;;;;;5370087;26;20011;-64
2024/04/14 05:23:11;;;;;;;6.95;4.88;;;;;;;;;;5348595;26;20008;-64
2024/04/14 05:25:37;;;;;;;10.00;4.45;;;;;;;;;;5348617;26;20033;-62
2024/04/14 05:28:02;;;;;;;6.38;4.22;;;;;;;;;;5348442;26;20015;-62
2024/04/14 05:30:28;;;;;;;8.05;3.38;;;;;;;;;;5347007;26;20312;-62
2024/04/14 05:32:54;;;;;;;6.15;3.13;;;;;;;;;;5346373;26;20013;-62
2024/04/14 05:35:20;;;;;;;4.97;3.47;;;;;;;;;;5349852;26;19997;-62
2024/04/14 05:37:45;;;;;;;6.20;3.05;;;;;;;;;;5376187;26;20028;-63
2024/04/14 05:40:11;;;;;;;7.68;3.55;;;;;;;;;;5347125;26;20001;-62
2024/04/14 05:42:36;;;;;;;5.43;3.47;;;;;;;;;;5344795;26;20000;-62
2024/04/14 05:45:02;;;;;;;5.55;3.17;;;;;;;;;;5347553;26;20005;-62
2024/04/14 05:47:29;;;;;;;6.63;3.45;;;;;;;;;;5347497;26;20359;-64
2024/04/14 05:49:55;;;;;;;6.23;3.17;;;;;;;;;;5347072;26;20013;-61
2024/04/14 05:52:21;;;;;;;6.88;3.50;;;;;;;;;;5347870;26;20259;-61
2024/04/14 05:54:46;;;;;;;6.35;3.42;;;;;;;;;;5346719;26;20404;-61
2024/04/14 05:57:12;;;;;;;4.60;3.40;;;;;;;;;;5376106;26;20004;-62
2024/04/14 05:59:37;;;;;;;7.93;3.28;;;;;;;;;;5380569;26;19996;-64
2024/04/14 06:02:03;;;;;;;10.02;3.28;;;;;;;;;;5378413;26;20000;-65
2024/04/14 06:04:28;;;;;;;6.68;3.50;;;;;;;;;;5322747;26;20005;-64
2024/04/14 06:06:54;;;;;;;6.90;3.22;;;;;;;;;;5349367;26;20408;-66
2024/04/14 06:09:21;;;;;;;6.53;3.78;;;;;;;;;;5358996;26;20470;-63
2024/04/14 06:11:47;;;;;;;7.43;3.28;;;;;;;;;;5352542;26;20083;-65
2024/04/14 06:14:12;;;;;;;7.82;3.97;;;;;;;;;;5346117;26;20036;-63
2024/04/14 06:16:37;;;;;;;4.78;3.60;;;;;;;;;;5345970;26;20075;-66
2024/04/14 06:19:03;;;;;;;10.07;3.67;;;;;;;;;;5346138;26;20036;-64
2024/04/14 06:21:28;;;;;;;4.43;2.80;;;;;;;;;;5366976;26;20238;-64
2024/04/14 06:23:53;;;;;;;6.57;3.27;;;;;;;;;;5381040;26;20222;-63
2024/04/14 06:26:19;;;;;;;5.53;2.97;;;;;;;;;;5379786;26;20267;-65
2024/04/14 06:28:44;;;;;;;5.70;3.80;;;;;;;;;;5380711;26;20355;-66
2024/04/14 06:31:09;;;;;;;7.23;3.73;;;;;;;;;;5382169;26;20230;-64
2024/04/14 06:33:35;;;;;;;8.93;3.17;;;;;;;;;;5381218;26;20257;-66
2024/04/14 06:36:01;;;;;;;4.93;3.28;;;;;;;;;;5370819;26;20272;-65
2024/04/14 06:38:27;;;;;;;2.20;1.80;;;;;;;;;;5346632;26;20004;-64
2024/04/14 06:40:52;;;;;;;4.78;2.50;;;;;;;;;;5316205;26;20015;-65
2024/04/14 06:43:18;;;;;;;4.18;2.83;;;;;;;;;;5345379;26;20005;-64
2024/04/14 06:45:48;;;;;;;4.87;3.00;;;;;;;;;;5346642;26;20319;-64
2024/04/14 06:48:16;;;;;;;6.57;3.33;;;;;;;;;;5345199;26;20231;-66
2024/04/14 06:50:42;;;;;;;5.70;2.70;;;;;;;;;;5353038;26;20000;-64
2024/04/14 06:53:07;;;;;;;6.40;2.65;;;;;;;;;;5380416;26;19996;-64
2024/04/14 06:55:33;;;;;;;9.13;2.20;;;;;;;;;;5375216;26;20022;-64
2024/04/14 06:57:58;;;;;;;7.40;3.90;;;;;;;;;;5343638;26;20005;-65
2024/04/14 07:00:24;;;;;;;7.25;2.65;;;;;;;;;;5344131;26;20012;-64
2024/04/14 07:02:49;;;;;;;8.70;3.70;;;;;;;;;;5345653;26;20012;-64
2024/04/14 07:05:15;;;;;;;7.63;2.72;;;;;;;;;;5350991;26;20355;-63
2024/04/14 07:07:40;;;;;;;6.80;2.85;;;;;;;;;;5366010;26;20012;-63
2024/04/14 07:10:06;;;;;;;4.43;2.60;;;;;;;;;;5345154;26;20108;-62
2024/04/14 07:12:31;;;;;;;5.80;2.92;;;;;;;;;;5346609;26;20001;-61
2024/04/14 07:14:56;;;;;;;3.35;2.20;;;;;;;;;;5345716;26;20005;-62
2024/04/14 07:17:22;;;;;;;6.75;2.17;;;;;;;;;;5342842;26;20020;-62
2024/04/14 07:19:47;;;;;;;3.70;1.80;;;;;;;;;;5346859;26;20011;-62
2024/04/14 07:22:12;;;;;;;3.15;1.77;;;;;;;;;;5380587;26;20303;-63
2024/04/14 07:24:38;;;;;;;3.17;2.10;;;;;;;;;;5380891;26;20004;-63
2024/04/14 07:27:05;;;;;;;3.03;2.15;;;;;;;;;;5380541;26;19996;-62
2024/04/14 07:29:30;;;;;;;7.45;2.50;;;;;;;;;;5378897;26;20000;-63
2024/04/14 07:31:56;;;;;;;6.35;2.60;;;;;;;;;;5374338;26;20037;-63
2024/04/14 07:34:23;;;;;;;5.72;2.83;;;;;;;;;;5351767;26;20047;-63
2024/04/14 07:36:48;;;;;;;9.05;2.85;;;;;;;;;;5341563;26;20064;-63
2024/04/14 07:39:14;;;;;;;5.57;2.92;;;;;;;;;;5343211;26;20016;-62
2024/04/14 07:41:39;;;;;;;8.45;2.80;;;;;;;;;;5340103;26;20386;-62
2024/04/14 07:44:05;;;;;;;6.40;2.63;;;;;;;;;;5345480;26;19997;-63
2024/04/14 07:46:30;;;;;;;7.55;2.72;;;;;;;;;;5344405;26;20020;-62
2024/04/14 07:48:56;;;;;;;6.00;2.50;;;;;;;;;;5355771;26;20012;-63
2024/04/14 07:51:21;;;;;;;4.97;2.83;;;;;;;;;;5380938;26;20004;-61
2024/04/14 07:53:47;;;;;;;4.30;2.78;;;;;;;;;;5379333;26;20329;-64
2024/04/14 07:56:12;;;;;;;7.50;2.42;;;;;;;;;;5379945;26;20400;-62
2024/04/14 07:58:37;;;;;;;3.70;2.25;;;;;;;;;;5379968;26;20016;-62
2024/04/14 08:01:04;;;;;;;5.38;2.30;;;;;;;;;;5381826;26;20408;-62
2024/04/14 08:03:29;;;;;;;3.55;2.03;;;;;;;;;;5370529;26;20033;-62
2024/04/14 08:05:55;;;;;;;2.90;2.10;;;;;;;;;;5346368;26;20091;-61
2024/04/14 08:08:20;;;;;;;6.32;2.67;;;;;;;;;;5347543;26;20004;-61
2024/04/14 08:10:46;;;;;;;5.30;2.53;;;;;;;;;;5348420;26;20015;-60
2024/04/14 08:13:11;;;;;;;6.30;2.60;;;;;;;;;;5348022;26;20001;-61
2024/04/14 08:15:36;;;;;;;6.22;2.40;;;;;;;;;;5347589;26;20078;-61
2024/04/14 08:18:02;;;;;;;4.28;2.30;;;;;;;;;;5356777;26;20421;-62
2024/04/14 08:20:27;;;;;;;5.82;2.05;;;;;;;;;;5383140;26;20004;-61
2024/04/14 08:22:53;;;;;;;5.20;1.80;;;;;;;;;;5375216;26;20008;-61
2024/04/14 08:25:18;;;;;;;9.32;1.88;;;;;;;;;;5355848;26;20283;-60
2024/04/14 08:27:44;;;;;;;3.08;1.83;;;;;;;;;;5383414;26;20012;-62
2024/04/14 08:30:09;;;;;;;5.10;1.70;;;;;;;;;;5382744;26;20004;-61
2024/04/14 08:32:35;;;;;;;1.90;1.70;;;;;;;;;;5375460;26;20000;-62
2024/04/14 08:35:00;;;;;;;3.88;1.67;;;;;;;;;;5348187;26;20012;-62
2024/04/14 08:37:26;;;;;;;4.00;1.67;;;;;;;;;;5347664;26;20470;-62
2024/04/14 08:39:51;;;;;;;4.07;1.52;;;;;;;;;;5347404;26;20021;-62
2024/04/14 08:42:17;;;;;;;2.90;1.60;;;;;;;;;;5349008;26;20001;-61
2024/04/14 08:44:44;;;;;;;2.50;1.50;;;;;;;;;;5347406;26;20373;-61
2024/04/14 08:47:10;;;;;;;3.65;1.70;;;;;;;;;;5349367;26;20420;-62
2024/04/14 08:49:36;;;;;;;2.97;1.45;;;;;;;;;;5348535;26;20008;-61
2024/04/14 08:52:04;;;;;;;3.25;1.60;;;;;;;;;;5348155;26;20043;-62
2024/04/14 08:54:29;;;;;;;3.40;1.77;;;;;;;;;;5346896;26;19997;-61
2024/04/14 08:56:57;;;;;;;2.53;1.58;;;;;;;;;;5347501;26;20008;-62
2024/04/14 08:59:23;;;;;;;2.63;1.80;;;;;;;;;;5348618;26;20458;-63
2024/04/14 09:01:48;;;;;;;3.22;1.77;;;;;;;;;;5345506;26;20011;-62
2024/04/14 09:04:15;;;;;;;6.45;1.65;;;;;;;;;;5347040;26;19997;-63
2024/04/14 09:06:42;;;;;;;7.18;2.08;;;;;;;;;;5350243;26;20015;-62
2024/04/14 09:09:08;;;;;;;5.85;2.08;;;;;;;;;;5346326;26;20012;-62
2024/04/14 09:11:34;;;;;;;4.95;2.20;;;;;;;;;;5346409;26;20009;-63
2024/04/14 09:13:59;;;;;;;5.53;1.85;;;;;;;;;;5347333;26;20008;-63
2024/04/14 09:16:25;;;;;;;4.80;2.20;;;;;;;;;;5349924;26;20016;-61
2024/04/14 09:18:52;;;;;;;3.30;2.80;;;;;;;;;;5350417;26;20013;-62
2024/04/14 09:21:17;;;;;;;2.45;2.08;;;;;;;;;;5347134;26;20447;-61
2024/04/14 09:23:42;;;;;;;7.45;3.30;;;;;;;;;;5346624;26;20001;-61
2024/04/14 09:26:08;;;;;;;4.78;2.80;;;;;;;;;;5347789;26;20284;-61
2024/04/14 09:28:33;;;;;;;6.70;2.10;;;;;;;;;;5348197;26;20005;-61
2024/04/14 09:30:58;;;;;;;5.35;2.10;;;;;;;;;;5349198;26;20067;-63
2024/04/14 09:33:25;;;;;;;9.02;1.63;;;;;;;;;;5346464;26;19997;-62
2024/04/14 09:35:51;;;;;;;3.50;1.77;;;;;;;;;;5346191;26;20009;-62
2024/04/14 09:38:17;;;;;;;2.60;1.65;;;;;;;;;;5353702;26;20019;-60
2024/04/14 09:40:43;;;;;;;2.88;1.70;;;;;;;;;;5381719;26;20000;-62
2024/04/14 09:43:09;;;;;;;5.25;1.70;;;;;;;;;;5380829;26;20007;-62
2024/04/14 09:45:35;;;;;;;5.50;1.42;;;;;;;;;;5381976;26;20004;-63
2024/04/14 09:48:01;;;;;;;3.88;1.60;;;;;;;;;;5352473;26;20029;-61
2024/04/14 09:50:28;;;;;;;3.33;1.30;;;;;;;;;;5349064;26;20014;-62
2024/04/14 09:52:55;;;;;;;5.10;1.10;;;;;;;;;;5348087;26;20028;-63
2024/04/14 09:55:20;;;;;;;2.92;1.52;;;;;;;;;;5347239;26;20015;-60
2024/04/14 09:57:48;;;;;;;2.58;1.38;;;;;;;;;;5347437;26;20431;-61
2024/04/14 10:00:14;;;;;;;4.38;1.58;;;;;;;;;;5370200;26;20289;-62
2024/04/14 10:03:01;;;;;;;3.08;1.23;;;;;;;;;;5377706;26;20066;-61
2024/04/14 10:05:27;;;;;;;3.55;1.67;;;;;;;;;;5381081;26;20005;-62
2024/04/14 10:07:53;;;;;;;3.15;1.85;;;;;;;;;;5381771;26;20284;-62
2024/04/14 10:10:19;;;;;;;3.38;1.45;;;;;;;;;;5381815;26;20011;-61
2024/04/14 10:12:45;;;;;;;2.10;1.50;;;;;;;;;;5380667;26;20004;-61
2024/04/14 10:15:13;;;;;;;2.30;1.52;;;;;;;;;;5380120;26;20384;-61
2024/04/14 10:17:38;;;;;;;3.80;1.58;;;;;;;;;;5358277;26;20013;-64
2024/04/14 10:20:07;;;;;;;3.35;1.83;;;;;;;;;;5374415;26;20015;-60
2024/04/14 10:22:39;;;;;;;5.13;1.73;;;;;;;;;;5381247;26;20028;-63
2024/04/14 10:25:05;;;;;;;5.15;1.83;;;;;;;;;;5379943;26;20004;-62
2024/04/14 10:27:31;;;;;;;3.72;1.70;;;;;;;;;;5380564;26;20118;-62
2024/04/14 10:29:57;;;;;;;4.40;2.47;;;;;;;;;;5382053;26;20008;-61
2024/04/14 10:32:23;;;;;;;5.13;2.10;;;;;;;;;;5371738;26;19997;-61
2024/04/14 10:34:49;;;;;;;5.05;2.30;;;;;;;;;;5345853;26;20007;-61
2024/04/14 10:37:24;;;;;;;2.40;2.10;;;;;;;;;;5354412;26;20015;-62
2024/04/14 10:39:53;;;;;;;3.53;2.20;;;;;;;;;;5380978;26;20032;-61
2024/04/14 10:42:19;;;;;;;7.57;2.05;;;;;;;;;;5380831;26;20012;-61
2024/04/14 10:44:45;;;;;;;4.22;2.10;;;;;;;;;;5381477;26;20070;-61
2024/04/14 10:47:14;;;;;;;4.68;2.03;;;;;;;;;;5371634;26;20017;-61
2024/04/14 10:49:39;;;;;;;5.72;2.38;;;;;;;;;;5345529;26;19997;-63
2024/04/14 10:52:05;;;;;;;4.85;2.35;;;;;;;;;;5345567;26;20415;-61
2024/04/14 10:54:31;;;;;;;3.78;2.20;;;;;;;;;;5347033;26;20004;-62
2024/04/14 10:56:56;;;;;;;2.88;1.80;;;;;;;;;;5346123;26;20000;-63
2024/04/14 10:59:22;;;;;;;4.25;1.58;;;;;;;;;;5343804;26;20011;-61
2024/04/14 11:01:50;;;;;;;6.32;2.03;;;;;;;;;;5353448;26;20008;-63
2024/04/14 11:04:16;;;;;;;3.05;1.88;;;;;;;;;;5381593;26;20004;-61
2024/04/14 11:06:42;;;;;;;3.03;2.00;;;;;;;;;;5380484;26;20015;-60
2024/04/14 11:09:08;;;;;;;5.57;1.90;;;;;;;;;;5377395;26;20315;-63
2024/04/14 11:11:34;;;;;;;6.18;2.47;;;;;;;;;;5379702;26;20000;-63
2024/04/14 11:13:59;;;;;;;4.35;2.20;;;;;;;;;;5381733;26;20422;-63
2024/04/14 11:16:25;;;;;;;5.25;2.10;;;;;;;;;;5381007;26;20000;-62
2024/04/14 11:18:51;;;;;;;5.88;2.40;;;;;;;;;;5379991;26;19996;-62
2024/04/14 11:21:20;;;;;;;3.33;2.10;;;;;;;;;;5378160;26;20322;-61
2024/04/14 11:23:48;;;;;;;5.72;2.67;;;;;;;;;;5346688;26;20001;-61
2024/04/14 11:26:13;;;;;;;4.00;2.40;;;;;;;;;;5345241;26;20000;-63
2024/04/14 11:28:39;;;;;;;4.03;2.55;;;;;;;;;;5342467;26;20376;-60
2024/04/14 11:31:05;;;;;;;6.95;2.83;;;;;;;;;;5345917;26;20023;-61
2024/04/14 11:33:30;;;;;;;5.38;2.30;;;;;;;;;;5344544;26;20416;-62
2024/04/14 11:35:59;;;;;;;2.85;1.90;;;;;;;;;;5345543;26;20001;-62
2024/04/14 11:38:24;;;;;;;2.42;1.20;;;;;;;;;;5370447;26;20004;-61
2024/04/14 11:40:50;;;;;;;3.45;1.50;;;;;;;;;;5377791;26;20403;-61
2024/04/14 11:43:15;;;;;;;3.58;1.10;;;;;;;;;;5349426;26;20013;-62
2024/04/14 11:45:48;;;;;;;2.25;1.17;;;;;;;;;;5343577;26;20009;-62
2024/04/14 11:48:14;;;;;;;3.05;1.30;;;;;;;;;;5369519;26;20000;-61
2024/04/14 11:50:39;;;;;;;3.40;1.35;;;;;;;;;;5378659;26;19996;-62
2024/04/14 11:53:05;;;;;;;3.97;2.13;;;;;;;;;;5355457;26;20005;-62
2024/04/14 11:55:30;;;;;;;3.35;1.60;;;;;;;;;;5344590;26;20487;-63
2024/04/14 11:57:55;;;;;;;2.67;1.58;;;;;;;;;;5344802;26;20005;-59
2024/04/14 12:00:21;;;;;;;2.83;1.65;;;;;;;;;;5344514;26;20015;-60
2024/04/14 12:02:46;;;;;;;3.20;1.80;;;;;;;;;;5343332;26;20020;-62
2024/04/14 12:05:13;;;;;;;1.88;1.33;;;;;;;;;;5344305;26;20092;-60
2024/04/14 12:07:38;;;;;;;2.45;1.38;;;;;;;;;;5365033;26;20106;-60
2024/04/14 12:10:04;;;;;;;3.72;1.70;;;;;;;;;;5378418;26;20354;-60
2024/04/14 12:12:29;;;;;;;2.55;1.55;;;;;;;;;;5362712;26;20300;-61
2024/04/14 12:14:55;;;;;;;3.67;1.70;;;;;;;;;;5343903;26;20004;-63
2024/04/14 12:17:20;;;;;;;3.60;2.03;;;;;;;;;;5344658;26;20008;-61
2024/04/14 12:19:47;;;;;;;4.88;2.03;;;;;;;;;;5343996;26;20308;-63
2024/04/14 12:22:13;;;;;;;3.30;2.10;;;;;;;;;;5361270;26;20431;-58
2024/04/14 12:24:38;;;;;;;3.08;2.45;;;;;;;;;;5379789;26;20007;-63
2024/04/14 12:27:04;;;;;;;2.65;2.03;;;;;;;;;;5378877;26;19996;-59
2024/04/14 12:29:30;;;;;;;3.85;2.20;;;;;;;;;;5378896;26;20314;-63
2024/04/14 12:31:56;;;;;;;3.85;2.67;;;;;;;;;;5368354;26;20087;-60
2024/04/14 12:34:21;;;;;;;4.57;2.25;;;;;;;;;;5344846;26;19997;-62
2024/04/14 12:36:46;;;;;;;3.47;2.10;;;;;;;;;;5360442;26;20000;-62
2024/04/14 12:39:12;;;;;;;6.88;2.80;;;;;;;;;;5379079;26;20079;-59
2024/04/14 12:41:37;;;;;;;4.78;2.40;;;;;;;;;;5380154;26;20011;-61
2024/04/14 12:44:03;;;;;;;9.65;2.72;;;;;;;;;;5378369;26;20280;-63
2024/04/14 12:46:28;;;;;;;4.25;2.58;;;;;;;;;;5377828;26;20000;-59
2024/04/14 12:48:54;;;;;;;4.03;2.60;;;;;;;;;;5383357;26;20008;-61
2024/04/14 12:51:19;;;;;;;5.80;2.60;;;;;;;;;;5367968;26;20019;-60
2024/04/14 12:53:44;;;;;;;4.25;2.20;;;;;;;;;;5347221;26;20001;-60
2024/04/14 12:56:10;;;;;;;3.47;2.30;;;;;;;;;;5347126;26;20055;-60
2024/04/14 12:58:35;;;;;;;6.03;2.40;;;;;;;;;;5349993;26;20001;-60
2024/04/14 13:01:01;;;;;;;3.97;2.30;;;;;;;;;;5347205;26;20001;-61
2024/04/14 13:03:29;;;;;;;5.07;2.58;;;;;;;;;;5346765;26;20303;-61
2024/04/14 13:05:55;;;;;;;3.58;2.00;;;;;;;;;;5347341;26;19997;-61
2024/04/14 13:08:20;;;;;;;3.65;2.60;;;;;;;;;;5348168;26;20381;-62
2024/04/14 13:10:46;;;;;;;6.72;2.28;;;;;;;;;;5357413;26;20024;-61
2024/04/14 13:13:11;;;;;;;3.72;1.95;;;;;;;;;;5377290;26;20011;-61
2024/04/14 13:15:37;;;;;;;5.38;2.55;;;;;;;;;;5345026;26;20349;-60
2024/04/14 13:18:02;;;;;;;7.65;2.17;;;;;;;;;;5348749;26;20004;-59
2024/04/14 13:20:27;;;;;;;7.90;2.22;;;;;;;;;;5347691;26;20277;-61
2024/04/14 13:22:53;;;;;;;4.35;2.50;;;;;;;;;;5346714;26;20100;-61
2024/04/14 13:25:18;;;;;;;6.78;2.60;;;;;;;;;;5346513;26;20023;-62
2024/04/14 13:27:44;;;;;;;6.20;2.15;;;;;;;;;;5350138;26;20005;-61
2024/04/14 13:30:09;;;;;;;5.47;2.05;;;;;;;;;;5381345;26;20426;-60
2024/04/14 13:32:35;;;;;;;5.47;2.35;;;;;;;;;;5381594;26;20368;-61
2024/04/14 13:35:00;;;;;;;4.93;2.40;;;;;;;;;;5378763;26;20306;-61
2024/04/14 13:37:26;;;;;;;3.13;2.22;;;;;;;;;;5381029;26;20004;-59
2024/04/14 13:39:51;;;;;;;5.68;2.38;;;;;;;;;;5382642;26;20012;-61
2024/04/14 13:42:16;;;;;;;9.15;2.55;;;;;;;;;;5381117;26;20323;-60
2024/04/14 13:44:42;;;;;;;5.50;2.28;;;;;;;;;;5381415;26;20000;-62
2024/04/14 13:47:08;;;;;;;6.22;2.15;;;;;;;;;;5381997;26;20028;-62
2024/04/14 13:49:34;;;;;;;3.45;2.50;;;;;;;;;;5381931;26;20004;-62
2024/04/14 13:52:00;;;;;;;8.90;2.60;;;;;;;;;;5352283;26;20001;-62
2024/04/14 13:54:25;;;;;;;5.07;2.33;;;;;;;;;;5344348;26;20012;-60
2024/04/14 13:56:51;;;;;;;6.15;1.95;;;;;;;;;;5345982;26;20012;-61
2024/04/14 13:59:16;;;;;;;4.20;1.85;;;;;;;;;;5344438;26;20001;-60
2024/04/14 14:01:42;;;;;;;5.55;2.28;;;;;;;;;;5370736;26;20004;-62
2024/04/14 14:04:08;;;;;;;9.05;2.35;;;;;;;;;;5380524;26;20408;-61
2024/04/14 14:06:34;;;;;;;4.47;2.08;;;;;;;;;;5356469;26;20008;-63
2024/04/14 14:08:59;;;;;;;4.45;2.08;;;;;;;;;;5375532;26;20005;-61
2024/04/14 14:11:25;;;;;;;6.30;1.70;;;;;;;;;;5380893;26;20008;-61
2024/04/14 14:13:50;;;;;;;7.35;2.20;;;;;;;;;;5381407;26;20070;-64
2024/04/14 14:16:16;;;;;;;7.50;2.10;;;;;;;;;;5381161;26;20302;-63
2024/04/14 14:18:41;;;;;;;6.00;1.83;;;;;;;;;;5380810;26;20012;-61
2024/04/14 14:21:07;;;;;;;6.38;2.30;;;;;;;;;;5377517;26;20291;-63
2024/04/14 14:23:33;;;;;;;3.55;2.00;;;;;;;;;;5380513;26;20000;-62
2024/04/14 14:25:58;;;;;;;4.50;2.05;;;;;;;;;;5355956;26;20024;-64
2024/04/14 14:28:23;;;;;;;8.88;2.47;;;;;;;;;;5347041;26;20005;-61